Time,TemperatureF,DewpointF,PressureIn,WindDirection,WindDirectionDegrees,WindSpeedMPH,WindSpeedGustMPH,Humidity,HourlyPrecipIn,Conditions,Clouds,dailyrainin,SolarRadiationWatts/m^2,SoftwareType,DateUTC
2013-03-14 00:02:00,12.0,-6.0,-100.00,NNE,29,3.0,8.0,42,0.00,,,0.00,0.000000,,2013-03-14 08:02:00,
2013-03-14 00:11:00,12.0,-6.0,-100.00,NNE,29,3.0,8.0,42,0.00,,,0.00,0.000000,,2013-03-14 08:11:00,
2013-03-14 00:21:00,12.0,-6.0,-100.00,NNE,29,3.0,8.0,42,0.00,,,0.00,0.000000,,2013-03-14 08:21:00,
2013-03-14 00:42:00,12.0,-7.0,-100.00,NNE,26,4.0,8.0,41,0.00,,,-99.99,0.000000,,2013-03-14 08:42:00,
2013-03-14 00:52:00,12.0,-7.0,-100.00,NNE,26,4.0,8.0,41,0.00,,,-99.99,0.000000,,2013-03-14 08:52:00,
2013-03-14 01:01:00,12.0,-7.0,-100.00,NNE,26,4.0,8.0,41,0.00,,,-99.99,0.000000,,2013-03-14 09:01:00,
2013-03-14 01:12:00,12.0,-7.0,-100.00,NNE,26,4.0,8.0,41,0.00,,,-99.99,0.000000,,2013-03-14 09:12:00,
2013-03-14 01:22:00,12.0,-7.0,-100.00,NNE,26,4.0,8.0,41,0.00,,,-99.99,0.000000,,2013-03-14 09:22:00,
2013-03-14 01:42:00,12.0,-5.0,-100.00,NNE,22,3.0,7.0,45,0.00,,,0.00,0.000000,,2013-03-14 09:42:00,
2013-03-14 01:52:00,12.0,-5.0,-100.00,NNE,22,3.0,7.0,45,0.00,,,0.00,0.000000,,2013-03-14 09:52:00,
2013-03-14 02:02:00,12.0,-5.0,-100.00,NNE,22,3.0,7.0,45,0.00,,,0.00,0.000000,,2013-03-14 10:02:00,
2013-03-14 02:12:00,12.0,-5.0,-100.00,NNE,22,3.0,7.0,45,0.00,,,0.00,0.000000,,2013-03-14 10:12:00,
2013-03-14 02:21:00,12.0,-5.0,-100.00,NNE,22,3.0,7.0,45,0.00,,,0.00,0.000000,,2013-03-14 10:21:00,
2013-03-14 02:42:00,10.0,-6.0,-100.00,North,5,4.0,11.0,46,0.00,,,0.00,0.000000,,2013-03-14 10:42:00,
2013-03-14 02:52:00,10.0,-6.0,-100.00,North,5,4.0,11.0,46,0.00,,,0.00,0.000000,,2013-03-14 10:52:00,
2013-03-14 03:02:00,10.0,-6.0,-100.00,North,5,4.0,11.0,46,0.00,,,0.00,0.000000,,2013-03-14 11:02:00,
2013-03-14 03:12:00,10.0,-6.0,-100.00,North,5,4.0,11.0,46,0.00,,,0.00,0.000000,,2013-03-14 11:12:00,
2013-03-14 03:21:00,10.0,-6.0,-100.00,North,5,4.0,11.0,46,0.00,,,0.00,0.000000,,2013-03-14 11:21:00,
2013-03-14 03:42:00,10.0,-6.0,-100.00,NNE,15,5.0,13.0,47,0.00,,,0.00,0.000000,,2013-03-14 11:42:00,
2013-03-14 03:52:00,10.0,-6.0,-100.00,NNE,15,5.0,13.0,47,0.00,,,0.00,0.000000,,2013-03-14 11:52:00,
2013-03-14 04:02:00,10.0,-6.0,-100.00,NNE,15,5.0,13.0,47,0.00,,,0.00,0.000000,,2013-03-14 12:02:00,
2013-03-14 04:12:00,10.0,-6.0,-100.00,NNE,15,5.0,13.0,47,0.00,,,0.00,0.000000,,2013-03-14 12:12:00,
2013-03-14 04:21:00,10.0,-6.0,-100.00,NNE,15,5.0,13.0,47,0.00,,,0.00,0.000000,,2013-03-14 12:21:00,
2013-03-14 04:42:00,9.0,-6.0,-100.00,NNE,29,4.0,9.0,50,0.00,,,-99.99,0.000000,,2013-03-14 12:42:00,
2013-03-14 04:52:00,9.0,-6.0,-100.00,NNE,29,4.0,9.0,50,0.00,,,-99.99,0.000000,,2013-03-14 12:52:00,
2013-03-14 05:02:00,9.0,-6.0,-100.00,NNE,29,4.0,9.0,50,0.00,,,-99.99,0.000000,,2013-03-14 13:02:00,
2013-03-14 05:12:00,9.0,-6.0,-100.00,NNE,29,4.0,9.0,50,0.00,,,-99.99,0.000000,,2013-03-14 13:12:00,
2013-03-14 05:21:00,9.0,-6.0,-100.00,NNE,29,4.0,9.0,50,0.00,,,-99.99,0.000000,,2013-03-14 13:21:00,
2013-03-14 05:43:00,9.0,-6.0,-100.00,NE,37,4.0,9.0,51,0.00,,,0.00,0.000000,,2013-03-14 13:43:00,
2013-03-14 05:52:00,9.0,-6.0,-100.00,NE,37,4.0,9.0,51,0.00,,,0.00,0.000000,,2013-03-14 13:52:00,
2013-03-14 06:02:00,9.0,-6.0,-100.00,NE,37,4.0,9.0,51,0.00,,,0.00,0.000000,,2013-03-14 14:02:00,
2013-03-14 06:12:00,9.0,-6.0,-100.00,NE,37,4.0,9.0,51,0.00,,,0.00,0.000000,,2013-03-14 14:12:00,
2013-03-14 06:21:00,9.0,-6.0,-100.00,NE,37,4.0,9.0,51,0.00,,,0.00,0.000000,,2013-03-14 14:21:00,
2013-03-14 06:42:00,9.0,-5.0,-100.00,NE,47,4.0,7.0,52,0.00,,,0.00,0.000000,,2013-03-14 14:42:00,
2013-03-14 06:53:00,9.0,-5.0,-100.00,NE,47,4.0,7.0,52,0.00,,,0.00,0.000000,,2013-03-14 14:53:00,
2013-03-14 07:02:00,9.0,-5.0,-100.00,NE,47,4.0,7.0,52,0.00,,,0.00,0.000000,,2013-03-14 15:02:00,
2013-03-14 07:12:00,9.0,-5.0,-100.00,NE,47,4.0,7.0,52,0.00,,,0.00,0.000000,,2013-03-14 15:12:00,
2013-03-14 07:21:00,9.0,-5.0,-100.00,NE,47,4.0,7.0,52,0.00,,,0.00,0.000000,,2013-03-14 15:21:00,
2013-03-14 07:43:00,9.0,-6.0,-100.00,NE,40,4.0,8.0,50,0.00,,,0.00,0.000000,,2013-03-14 15:43:00,
2013-03-14 07:52:00,9.0,-6.0,-100.00,NE,40,4.0,8.0,50,0.00,,,0.00,0.000000,,2013-03-14 15:52:00,
2013-03-14 08:02:00,9.0,-6.0,-100.00,NE,40,4.0,8.0,50,0.00,,,0.00,0.000000,,2013-03-14 16:02:00,
2013-03-14 08:12:00,9.0,-6.0,-100.00,NE,40,4.0,8.0,50,0.00,,,0.00,0.000000,,2013-03-14 16:12:00,
2013-03-14 08:22:00,9.0,-6.0,-100.00,NE,40,4.0,8.0,50,0.00,,,0.00,0.000000,,2013-03-14 16:22:00,
2013-03-14 08:42:00,9.0,-6.0,-100.00,NE,42,5.0,10.0,51,0.00,,,0.00,6.000000,,2013-03-14 16:42:00,
2013-03-14 09:22:00,9.0,-6.0,-100.00,NE,42,5.0,10.0,51,0.00,,,0.00,6.000000,,2013-03-14 17:22:00,
2013-03-14 09:42:00,9.0,-6.0,-100.00,NE,36,5.0,10.0,50,0.00,,,0.00,18.000000,,2013-03-14 17:42:00,
2013-03-14 09:52:00,9.0,-6.0,-100.00,NE,36,5.0,10.0,50,0.00,,,0.00,18.000000,,2013-03-14 17:52:00,
2013-03-14 10:02:00,9.0,-6.0,-100.00,NE,36,5.0,10.0,50,0.00,,,0.00,18.000000,,2013-03-14 18:02:00,
2013-03-14 10:12:00,9.0,-6.0,-100.00,NE,36,5.0,10.0,50,0.00,,,0.00,18.000000,,2013-03-14 18:12:00,
2013-03-14 10:22:00,9.0,-6.0,-100.00,NE,36,5.0,10.0,50,0.00,,,0.00,18.000000,,2013-03-14 18:22:00,
2013-03-14 10:43:00,9.0,-7.0,-100.00,NNE,30,6.0,15.0,48,0.00,,,0.00,36.000000,,2013-03-14 18:43:00,
2013-03-14 10:52:00,9.0,-7.0,-100.00,NNE,30,6.0,15.0,48,0.00,,,0.00,36.000000,,2013-03-14 18:52:00,
2013-03-14 11:02:00,9.0,-7.0,-100.00,NNE,30,6.0,15.0,48,0.00,,,0.00,36.000000,,2013-03-14 19:02:00,
2013-03-14 11:12:00,9.0,-7.0,-100.00,NNE,30,6.0,15.0,48,0.00,,,0.00,36.000000,,2013-03-14 19:12:00,
2013-03-14 11:21:00,9.0,-7.0,-100.00,NNE,30,6.0,15.0,48,0.00,,,0.00,36.000000,,2013-03-14 19:21:00,
2013-03-14 12:42:00,14.0,-6.0,-100.00,North,1,8.0,13.0,40,-99.99,,,0.00,403.000000,,2013-03-14 20:42:00,
2013-03-14 12:52:00,14.0,-6.0,-100.00,North,1,8.0,13.0,40,-99.99,,,0.00,403.000000,,2013-03-14 20:52:00,
2013-03-14 13:02:00,14.0,-6.0,-100.00,North,1,8.0,13.0,40,-99.99,,,0.00,403.000000,,2013-03-14 21:02:00,
2013-03-14 13:12:00,14.0,-6.0,-100.00,North,1,8.0,13.0,40,-99.99,,,0.00,403.000000,,2013-03-14 21:12:00,
2013-03-14 13:21:00,14.0,-6.0,-100.00,North,1,8.0,13.0,40,-99.99,,,0.00,403.000000,,2013-03-14 21:21:00,
2013-03-14 13:43:00,16.0,-5.0,-100.00,North,1,9.0,17.0,39,0.00,,,0.00,480.000000,,2013-03-14 21:43:00,
2013-03-14 13:53:00,16.0,-5.0,-100.00,North,1,9.0,17.0,39,0.00,,,0.00,480.000000,,2013-03-14 21:53:00,
2013-03-14 14:03:00,16.0,-5.0,-100.00,North,1,9.0,17.0,39,0.00,,,0.00,480.000000,,2013-03-14 22:03:00,
2013-03-14 14:12:00,16.0,-5.0,-100.00,North,1,9.0,17.0,39,0.00,,,0.00,480.000000,,2013-03-14 22:12:00,
2013-03-14 14:23:00,16.0,-5.0,-100.00,North,1,9.0,17.0,39,0.00,,,0.00,480.000000,,2013-03-14 22:23:00,
2013-03-14 14:42:00,16.0,-6.0,-100.00,North,356,8.0,15.0,36,0.00,,,0.00,518.000000,,2013-03-14 22:42:00,
2013-03-14 14:52:00,16.0,-6.0,-100.00,North,356,8.0,15.0,36,0.00,,,0.00,518.000000,,2013-03-14 22:52:00,
2013-03-14 15:02:00,16.0,-6.0,-100.00,North,356,8.0,15.0,36,0.00,,,0.00,518.000000,,2013-03-14 23:02:00,
2013-03-14 15:11:00,16.0,-6.0,-100.00,North,356,8.0,15.0,36,0.00,,,0.00,518.000000,,2013-03-14 23:11:00,
2013-03-14 15:21:00,16.0,-6.0,-100.00,North,356,8.0,15.0,36,0.00,,,0.00,518.000000,,2013-03-14 23:21:00,
2013-03-14 15:43:00,19.0,-4.0,-100.00,North,355,8.0,12.0,35,0.00,,,0.00,553.000000,,2013-03-14 23:43:00,
2013-03-14 15:53:00,19.0,-4.0,-100.00,North,355,8.0,12.0,35,0.00,,,0.00,553.000000,,2013-03-14 23:53:00,
2013-03-14 16:02:00,19.0,-4.0,-100.00,North,355,8.0,12.0,35,0.00,,,0.00,553.000000,,2013-03-15 00:02:00,
2013-03-14 16:12:00,19.0,-4.0,-100.00,North,355,8.0,12.0,35,0.00,,,0.00,553.000000,,2013-03-15 00:12:00,
2013-03-14 16:21:00,19.0,-4.0,-100.00,North,355,8.0,12.0,35,0.00,,,0.00,553.000000,,2013-03-15 00:21:00,
2013-03-14 16:42:00,18.0,-5.0,-100.00,North,352,9.0,14.0,36,0.00,,,0.00,419.000000,,2013-03-15 00:42:00,
2013-03-14 16:52:00,18.0,-5.0,-100.00,North,352,9.0,14.0,36,0.00,,,0.00,419.000000,,2013-03-15 00:52:00,
2013-03-14 17:02:00,18.0,-5.0,-100.00,North,352,9.0,14.0,36,0.00,,,0.00,419.000000,,2013-03-15 01:02:00,
2013-03-14 17:11:00,18.0,-5.0,-100.00,North,352,9.0,14.0,36,0.00,,,0.00,419.000000,,2013-03-15 01:11:00,
2013-03-14 17:21:00,18.0,-5.0,-100.00,North,352,9.0,14.0,36,0.00,,,0.00,419.000000,,2013-03-15 01:21:00,
2013-03-14 17:43:00,16.0,-5.0,-100.00,North,357,7.0,14.0,38,0.00,,,0.00,87.000000,,2013-03-15 01:43:00,
2013-03-14 17:52:00,16.0,-5.0,-100.00,North,357,7.0,14.0,38,0.00,,,0.00,87.000000,,2013-03-15 01:52:00,
2013-03-14 18:02:00,16.0,-5.0,-100.00,North,357,7.0,14.0,38,0.00,,,0.00,87.000000,,2013-03-15 02:02:00,
2013-03-14 18:12:00,16.0,-5.0,-100.00,North,357,7.0,14.0,38,0.00,,,0.00,87.000000,,2013-03-15 02:12:00,
2013-03-14 18:21:00,16.0,-5.0,-100.00,North,357,7.0,14.0,38,0.00,,,0.00,87.000000,,2013-03-15 02:21:00,
2013-03-14 18:42:00,16.0,-4.0,-100.00,North,8,6.0,10.0,40,0.00,,,0.00,56.000000,,2013-03-15 02:42:00,
2013-03-14 18:52:00,16.0,-4.0,-100.00,North,8,6.0,10.0,40,0.00,,,0.00,56.000000,,2013-03-15 02:52:00,
2013-03-14 19:02:00,16.0,-4.0,-100.00,North,8,6.0,10.0,40,0.00,,,0.00,56.000000,,2013-03-15 03:02:00,
2013-03-14 19:11:00,16.0,-4.0,-100.00,North,8,6.0,10.0,40,0.00,,,0.00,56.000000,,2013-03-15 03:11:00,
2013-03-14 19:21:00,16.0,-4.0,-100.00,North,8,6.0,10.0,40,0.00,,,0.00,56.000000,,2013-03-15 03:21:00,
2013-03-14 19:43:00,16.0,-5.0,-100.00,NNE,17,5.0,11.0,39,0.00,,,0.00,17.000000,,2013-03-15 03:43:00,
2013-03-14 19:53:00,16.0,-5.0,-100.00,NNE,17,5.0,11.0,39,0.00,,,0.00,17.000000,,2013-03-15 03:53:00,
2013-03-14 20:03:00,16.0,-5.0,-100.00,NNE,17,5.0,11.0,39,0.00,,,0.00,17.000000,,2013-03-15 04:03:00,
2013-03-14 20:12:00,16.0,-5.0,-100.00,NNE,17,5.0,11.0,39,0.00,,,0.00,17.000000,,2013-03-15 04:12:00,
2013-03-14 20:22:00,16.0,-5.0,-100.00,NNE,17,5.0,11.0,39,0.00,,,0.00,17.000000,,2013-03-15 04:22:00,
2013-03-14 20:43:00,16.0,-4.0,-100.00,NNE,20,4.0,9.0,41,0.00,,,0.00,0.000000,,2013-03-15 04:43:00,
2013-03-14 20:53:00,16.0,-4.0,-100.00,NNE,20,4.0,9.0,41,0.00,,,0.00,0.000000,,2013-03-15 04:53:00,
2013-03-14 21:02:00,16.0,-4.0,-100.00,NNE,20,4.0,9.0,41,0.00,,,0.00,0.000000,,2013-03-15 05:02:00,
2013-03-14 21:12:00,16.0,-4.0,-100.00,NNE,20,4.0,9.0,41,0.00,,,0.00,0.000000,,2013-03-15 05:12:00,
2013-03-14 21:22:00,16.0,-4.0,-100.00,NNE,20,4.0,9.0,41,0.00,,,0.00,0.000000,,2013-03-15 05:22:00,
2013-03-14 21:42:00,16.0,-4.0,-100.00,NNE,30,4.0,14.0,41,0.00,,,0.00,0.000000,,2013-03-15 05:42:00,
2013-03-14 21:52:00,16.0,-4.0,-100.00,NNE,30,4.0,14.0,41,0.00,,,0.00,0.000000,,2013-03-15 05:52:00,
2013-03-14 22:02:00,16.0,-4.0,-100.00,NNE,30,4.0,14.0,41,0.00,,,0.00,0.000000,,2013-03-15 06:02:00,
2013-03-14 22:12:00,16.0,-4.0,-100.00,NNE,30,4.0,14.0,41,0.00,,,0.00,0.000000,,2013-03-15 06:12:00,
2013-03-14 22:21:00,16.0,-4.0,-100.00,NNE,30,4.0,14.0,41,0.00,,,0.00,0.000000,,2013-03-15 06:21:00,
2013-03-14 22:42:00,14.0,-5.0,-100.00,NNE,30,4.0,9.0,42,0.00,,,0.00,0.000000,,2013-03-15 06:42:00,
2013-03-14 22:53:00,14.0,-5.0,-100.00,NNE,30,4.0,9.0,42,0.00,,,0.00,0.000000,,2013-03-15 06:53:00,
2013-03-14 23:02:00,14.0,-5.0,-100.00,NNE,30,4.0,9.0,42,0.00,,,0.00,0.000000,,2013-03-15 07:02:00,
2013-03-14 23:12:00,14.0,-5.0,-100.00,NNE,30,4.0,9.0,42,0.00,,,0.00,0.000000,,2013-03-15 07:12:00,
2013-03-14 23:21:00,14.0,-5.0,-100.00,NNE,30,4.0,9.0,42,0.00,,,0.00,0.000000,,2013-03-15 07:21:00,
2013-03-14 23:42:00,14.0,-4.0,-100.00,NNE,23,4.0,9.0,43,0.00,,,0.00,0.000000,,2013-03-15 07:42:00,
2013-03-14 23:52:00,14.0,-4.0,-100.00,NNE,23,4.0,9.0,43,0.00,,,0.00,0.000000,,2013-03-15 07:52:00,